Woodbury, New Jersey
Current Conditions -  °F | °C
As of 4:54 AM on Sunday 26 Oct 2014 (Local Time) from KPHL Reporting Station
Few Clouds Few Clouds  
Wind Chill: 60°   Ceiling: Unl
Heat Index: 60°   Visibility: 10mi
Dew Point: 45°   Wind: 10mph
Humidity: 57%   Direction: 290°WNW
Pressure: 29.63"   Gusts: NA
Location:  39.84°N, 75.15°W
Report Text: KPHL 260854Z 29009KT 10SM FEW100 16/07 A2963 RMK AO2 SLP033 T01560072 53005
Loading
Personal Weather Stations






























Interactive Weather Map
Tropical Storm Tracking
New forecast layout! Learn more

10-Day Weather Forecast

Advertisements
Track Severe Weather on mobile